createdAt,value
2018-07-27T00:02:08.961Z,96378.05
2018-07-27T00:04:36.363Z,96377.73
2018-07-27T00:07:03.705Z,96376.41
2018-07-27T00:09:30.997Z,96375.91
2018-07-27T00:11:58.292Z,96372.97
2018-07-27T00:14:25.687Z,96370.31
2018-07-27T00:16:52.918Z,96367.83
2018-07-27T00:19:20.091Z,96366.98
2018-07-27T00:21:47.375Z,96368.16
2018-07-27T00:24:14.565Z,96365.05
2018-07-27T00:26:41.811Z,96364.38
2018-07-27T00:29:09.015Z,96366.82
2018-07-27T00:31:36.264Z,96372.14
2018-07-27T00:34:03.463Z,96364.52
2018-07-27T00:36:30.720Z,96358.55
2018-07-27T00:38:57.935Z,96359.23
2018-07-27T00:41:25.159Z,96357.89
2018-07-27T00:43:52.340Z,96355.25
2018-07-27T00:46:19.599Z,96356.91
2018-07-27T00:48:46.828Z,96356.42
2018-07-27T00:51:14.192Z,96361.56
2018-07-27T00:53:41.429Z,96357.27
2018-07-27T00:56:08.676Z,96352.96
2018-07-27T00:58:35.896Z,96352.30
2018-07-27T01:01:03.295Z,96348.64
2018-07-27T01:03:30.579Z,96343.87
2018-07-27T01:05:57.867Z,96345.34
2018-07-27T01:08:25.093Z,96349.31
2018-07-27T01:10:52.339Z,96344.02
2018-07-27T01:13:19.529Z,96349.31
2018-07-27T01:15:46.834Z,96352.46
2018-07-27T01:18:14.002Z,96354.61
2018-07-27T01:20:41.416Z,96350.31
2018-07-27T01:23:08.977Z,96356.61
2018-07-27T01:25:36.302Z,96350.98
2018-07-27T01:28:03.691Z,96345.02
2018-07-27T01:30:30.854Z,96353.62
2018-07-27T01:32:58.107Z,96355.77
2018-07-27T01:35:25.316Z,96353.94
2018-07-27T01:37:52.615Z,96356.27
2018-07-27T01:40:19.841Z,96348.15
2018-07-27T01:42:47.143Z,96349.31
2018-07-27T01:45:14.374Z,96355.61
2018-07-27T01:47:41.578Z,96347.49
2018-07-27T01:50:08.845Z,96354.40
2018-07-27T01:52:36.046Z,96344.81
2018-07-27T01:55:03.367Z,96357.02
2018-07-27T01:57:30.638Z,96356.19
2018-07-27T01:59:57.947Z,96352.20
2018-07-27T02:02:25.184Z,96349.20
2018-07-27T02:04:52.484Z,96347.48
2018-07-27T02:07:19.792Z,96352.45
2018-07-27T02:09:47.039Z,96352.78
2018-07-27T02:12:14.318Z,96338.05
2018-07-27T02:14:41.545Z,96344.84
2018-07-27T02:17:08.748Z,96344.52
2018-07-27T02:19:35.945Z,96349.45
2018-07-27T02:22:03.182Z,96344.19
2018-07-27T02:24:30.386Z,96345.18
2018-07-27T02:26:57.512Z,96344.19
2018-07-27T02:29:24.726Z,96346.11
2018-07-27T02:31:55.956Z,96333.86
2018-07-27T02:34:23.194Z,96345.60
2018-07-27T02:36:50.444Z,96339.41
2018-07-27T02:39:17.626Z,96334.81
2018-07-27T02:41:44.859Z,96335.45
2018-07-27T02:44:11.985Z,96336.59
2018-07-27T02:46:39.202Z,96338.39
2018-07-27T02:49:06.658Z,96332.95
2018-07-27T02:51:33.938Z,96319.20
2018-07-27T02:54:01.166Z,96330.79
2018-07-27T02:56:28.436Z,96321.88
2018-07-27T02:58:55.624Z,96327.30
2018-07-27T03:01:22.899Z,96320.55
2018-07-27T03:03:50.059Z,96314.58
2018-07-27T03:06:17.535Z,96317.55
2018-07-27T03:08:44.800Z,96318.50
2018-07-27T03:11:12.099Z,96315.20
2018-07-27T03:13:39.472Z,96318.47
2018-07-27T03:16:06.770Z,96314.69
2018-07-27T03:18:33.947Z,96313.29
2018-07-27T03:21:01.857Z,96317.16
2018-07-27T03:23:29.140Z,96318.72
2018-07-27T03:25:56.478Z,96323.48
2018-07-27T03:28:23.753Z,96322.63
2018-07-27T03:30:50.970Z,96320.98
2018-07-27T03:33:18.284Z,96318.25
2018-07-27T03:35:45.600Z,96304.02
2018-07-27T03:38:12.970Z,96315.46
2018-07-27T03:40:40.196Z,96315.33
2018-07-27T03:43:07.376Z,96314.20
2018-07-27T03:45:34.614Z,96312.69
2018-07-27T03:48:06.363Z,96302.92
2018-07-27T03:50:33.488Z,96318.44
2018-07-27T03:53:00.733Z,96315.56
2018-07-27T03:55:28.887Z,96310.89
2018-07-27T03:57:56.056Z,96311.78
2018-07-27T04:00:23.191Z,96313.44
2018-07-27T04:02:50.489Z,96312.16
2018-07-27T04:05:17.691Z,96307.92
2018-07-27T04:07:44.961Z,96311.87
2018-07-27T04:10:12.194Z,96304.87
2018-07-27T04:12:39.421Z,96307.12
2018-07-27T04:15:06.709Z,96312.87
2018-07-27T04:17:33.880Z,96307.61
2018-07-27T04:20:01.022Z,96308.98
2018-07-27T04:22:28.302Z,96310.39
2018-07-27T04:24:55.563Z,96298.43
2018-07-27T04:27:22.796Z,96309.78
2018-07-27T04:29:49.956Z,96305.08
2018-07-27T04:32:17.168Z,96308.42
2018-07-27T04:34:44.435Z,96310.47
2018-07-27T04:37:11.692Z,96307.50
2018-07-27T04:39:38.976Z,96306.39
2018-07-27T04:42:06.170Z,96300.69
2018-07-27T04:44:33.351Z,96304.09
2018-07-27T04:47:00.595Z,96308.02
2018-07-27T04:49:27.884Z,96304.52
2018-07-27T04:51:55.127Z,96301.41
2018-07-27T04:54:22.326Z,96308.06
2018-07-27T04:56:49.640Z,96312.03
2018-07-27T04:59:16.801Z,96308.30
2018-07-27T05:01:44.030Z,96304.00
2018-07-27T05:04:11.276Z,96300.99
2018-07-27T05:06:38.522Z,96308.53
2018-07-27T05:09:12.531Z,96306.69
2018-07-27T05:11:40.080Z,96313.16
2018-07-27T05:14:07.542Z,96313.72
2018-07-27T05:16:34.761Z,96308.72
2018-07-27T05:19:01.929Z,96302.73
2018-07-27T05:21:29.201Z,96310.84
2018-07-27T05:23:56.401Z,96305.60
2018-07-27T05:26:23.648Z,96317.10
2018-07-27T05:28:50.917Z,96310.94
2018-07-27T05:31:18.150Z,96309.02
2018-07-27T05:33:45.423Z,96305.63
2018-07-27T05:36:12.712Z,96316.25
2018-07-27T05:38:40.000Z,96307.18
2018-07-27T05:41:07.200Z,96314.18
2018-07-27T05:43:34.732Z,96322.95
2018-07-27T05:46:02.004Z,96322.47
2018-07-27T05:48:29.183Z,96305.47
2018-07-27T05:50:56.426Z,96321.52
2018-07-27T05:53:23.696Z,96311.25
2018-07-27T05:55:50.886Z,96315.17
2018-07-27T05:58:18.102Z,96311.51
2018-07-27T06:00:45.334Z,96317.11
2018-07-27T06:03:12.571Z,96320.41
2018-07-27T06:05:39.968Z,96315.59
2018-07-27T06:08:07.156Z,96319.70
2018-07-27T06:10:34.375Z,96322.02
2018-07-27T06:13:01.581Z,96316.00
2018-07-27T06:15:28.807Z,96320.47
2018-07-27T06:17:55.983Z,96325.89
2018-07-27T06:20:23.294Z,96315.20
2018-07-27T06:22:50.564Z,96321.03
2018-07-27T06:25:17.874Z,96318.06
2018-07-27T06:27:45.052Z,96321.49
2018-07-27T06:30:12.242Z,96323.74
2018-07-27T06:32:39.518Z,96321.39
2018-07-27T06:35:07.515Z,96323.27
2018-07-27T06:37:34.602Z,96325.57
2018-07-27T06:40:01.824Z,96322.89
2018-07-27T06:42:28.948Z,96330.03
2018-07-27T06:44:56.176Z,96330.03
2018-07-27T06:47:23.388Z,96325.19
2018-07-27T06:49:50.646Z,96321.97
2018-07-27T06:52:17.867Z,96322.91
2018-07-27T06:54:45.056Z,96325.01
2018-07-27T06:57:12.254Z,96324.20
2018-07-27T06:59:39.592Z,96322.23
2018-07-27T07:02:06.795Z,96322.03
2018-07-27T07:04:34.052Z,96322.64
2018-07-27T07:07:01.225Z,96324.39
2018-07-27T07:09:28.399Z,96315.14
2018-07-27T07:11:55.629Z,96318.24
2018-07-27T07:14:22.896Z,96321.06
2018-07-27T07:16:50.056Z,96321.45
2018-07-27T07:19:17.253Z,96321.41
2018-07-27T07:21:44.511Z,96319.84
2018-07-27T07:24:11.764Z,96316.11
2018-07-27T07:26:39.054Z,96316.77
2018-07-27T07:29:06.306Z,96326.09
2018-07-27T07:31:33.589Z,96318.44
2018-07-27T07:34:00.868Z,96317.73
2018-07-27T07:36:28.120Z,96317.11
2018-07-27T07:38:55.327Z,96320.20
2018-07-27T07:41:22.611Z,96321.02
2018-07-27T07:43:49.855Z,96319.85
2018-07-27T07:46:17.061Z,96316.17
2018-07-27T07:48:44.259Z,96306.89
2018-07-27T07:51:11.491Z,96308.94
2018-07-27T07:53:38.661Z,96303.91
2018-07-27T07:56:05.956Z,96303.22
2018-07-27T07:58:33.508Z,96299.13
2018-07-27T08:01:00.734Z,96296.74
2018-07-27T08:03:28.064Z,96299.34
2018-07-27T08:05:55.409Z,96304.26
2018-07-27T08:08:22.565Z,96303.52
2018-07-27T08:10:49.841Z,96301.45
2018-07-27T08:13:17.133Z,96302.28
2018-07-27T08:15:44.571Z,96306.06
2018-07-27T08:18:11.802Z,96295.66
2018-07-27T08:20:38.996Z,96294.98
2018-07-27T08:23:06.186Z,96287.39
2018-07-27T08:25:43.583Z,96290.27
2018-07-27T08:28:22.357Z,96286.77
2018-07-27T08:30:49.600Z,96289.31
2018-07-27T08:33:16.818Z,96287.97
2018-07-27T08:35:44.077Z,96280.73
2018-07-27T08:38:11.256Z,96283.39
2018-07-27T08:40:38.565Z,96284.08
2018-07-27T08:43:05.870Z,96286.13
2018-07-27T08:45:33.145Z,96279.02
2018-07-27T08:48:00.384Z,96276.92
2018-07-27T08:50:27.683Z,96269.28
2018-07-27T08:52:54.918Z,96272.29
2018-07-27T08:55:22.206Z,96272.13
2018-07-27T08:57:49.431Z,96271.16
2018-07-27T09:00:16.980Z,96266.23
2018-07-27T09:02:44.213Z,96269.41
2018-07-27T09:05:11.574Z,96270.66
2018-07-27T09:07:38.820Z,96276.84
2018-07-27T09:10:06.090Z,96265.06
2018-07-27T09:12:33.330Z,96261.68
2018-07-27T09:15:00.916Z,96265.41
2018-07-27T09:17:28.260Z,96269.05
2018-07-27T09:19:55.381Z,96262.48
2018-07-27T09:22:22.588Z,96261.70
2018-07-27T09:24:49.908Z,96255.30
2018-07-27T09:27:17.075Z,96260.52
2018-07-27T09:29:44.313Z,96258.26
2018-07-27T09:32:11.610Z,96262.59
2018-07-27T09:34:38.940Z,96257.16
2018-07-27T09:37:06.213Z,96259.35
2018-07-27T09:39:33.466Z,96255.36
2018-07-27T09:42:00.727Z,96252.22
2018-07-27T09:44:28.051Z,96252.77
2018-07-27T09:46:55.379Z,96251.19
2018-07-27T09:49:22.555Z,96256.75
2018-07-27T09:51:49.853Z,96255.84
2018-07-27T09:54:17.157Z,96252.55
2018-07-27T09:56:44.449Z,96245.77
2018-07-27T09:59:11.746Z,96251.02
2018-07-27T10:01:38.993Z,96247.38
2018-07-27T10:04:06.284Z,96249.50
2018-07-27T10:06:33.510Z,96249.66
2018-07-27T10:09:00.808Z,96246.33
2018-07-27T10:11:28.001Z,96246.70
2018-07-27T10:13:55.254Z,96236.14
2018-07-27T10:16:22.563Z,96229.86
2018-07-27T10:18:49.763Z,96238.01
2018-07-27T10:21:17.110Z,96239.44
2018-07-27T10:23:44.370Z,96243.41
2018-07-27T10:26:11.621Z,96236.53
2018-07-27T10:28:38.830Z,96242.27
2018-07-27T10:31:06.245Z,96242.98
2018-07-27T10:33:33.478Z,96238.74
2018-07-27T10:36:00.716Z,96221.88
2018-07-27T10:38:28.028Z,96234.83
2018-07-27T10:40:55.267Z,96222.96
2018-07-27T10:43:22.589Z,96221.47
2018-07-27T10:45:49.925Z,96228.11
2018-07-27T10:48:17.237Z,96219.69
2018-07-27T10:50:44.474Z,96225.84
2018-07-27T10:53:11.637Z,96223.88
2018-07-27T10:55:38.874Z,96215.68
2018-07-27T10:58:06.055Z,96217.98
2018-07-27T11:00:33.364Z,96220.20
2018-07-27T11:03:00.582Z,96218.36
2018-07-27T11:05:27.756Z,96215.36
2018-07-27T11:07:55.015Z,96204.22
2018-07-27T11:10:22.329Z,96204.92
2018-07-27T11:12:49.537Z,96206.69
2018-07-27T11:15:16.844Z,96200.29
2018-07-27T11:17:44.135Z,96191.55
2018-07-27T11:20:11.360Z,96193.63
2018-07-27T11:22:38.645Z,96190.80
2018-07-27T11:25:06.021Z,96194.11
2018-07-27T11:27:33.325Z,96191.86
2018-07-27T11:30:00.667Z,96192.91
2018-07-27T11:32:27.957Z,96184.64
2018-07-27T11:34:55.203Z,96183.07
2018-07-27T11:37:22.541Z,96190.28
2018-07-27T11:39:49.840Z,96187.86
2018-07-27T11:42:17.140Z,96176.84
2018-07-27T11:44:44.336Z,96174.45
2018-07-27T11:47:11.546Z,96177.84
2018-07-27T11:49:38.775Z,96179.34
2018-07-27T11:52:06.050Z,96175.34
2018-07-27T11:54:33.359Z,96173.98
2018-07-27T11:57:00.792Z,96177.95
2018-07-27T11:59:28.002Z,96171.68
2018-07-27T12:01:55.512Z,96155.22
2018-07-27T12:04:22.765Z,96171.72
2018-07-27T12:06:50.033Z,96164.25
2018-07-27T12:09:17.292Z,96163.45
2018-07-27T12:11:44.641Z,96166.83
2018-07-27T12:14:12.146Z,96152.36
2018-07-27T12:16:39.263Z,96154.34
2018-07-27T12:19:06.567Z,96155.13
2018-07-27T12:21:33.998Z,96148.09
2018-07-27T12:24:01.295Z,96147.16
2018-07-27T12:26:28.547Z,96150.17
2018-07-27T12:28:55.815Z,96147.47
2018-07-27T12:31:23.162Z,96152.84
2018-07-27T12:33:50.447Z,96150.21
2018-07-27T12:36:17.765Z,96140.47
2018-07-27T12:38:45.064Z,96136.23
2018-07-27T12:41:12.426Z,96140.09
2018-07-27T12:43:39.685Z,96138.58
2018-07-27T12:46:06.954Z,96134.58
2018-07-27T12:48:34.171Z,96129.37
2018-07-27T12:51:01.485Z,96134.30
2018-07-27T12:53:28.722Z,96128.51
2018-07-27T12:55:56.020Z,96132.47
2018-07-27T12:58:23.351Z,96125.53
2018-07-27T13:00:50.583Z,96125.35
2018-07-27T13:03:17.875Z,96130.52
2018-07-27T13:05:45.158Z,96123.93
2018-07-27T13:08:12.391Z,96122.30
2018-07-27T13:10:39.687Z,96120.42
2018-07-27T13:13:06.966Z,96117.36
2018-07-27T13:15:34.222Z,96117.59
2018-07-27T13:18:01.500Z,96109.33
2018-07-27T13:21:02.131Z,96109.17
2018-07-27T13:23:29.328Z,96103.16
2018-07-27T13:26:27.835Z,96111.18
2018-07-27T13:28:41.592Z,96108.98
2018-07-27T13:31:09.737Z,96106.83
2018-07-27T13:33:37.015Z,96101.27
2018-07-27T13:36:04.335Z,96094.93
2018-07-27T13:38:31.699Z,96094.80
2018-07-27T13:40:59.110Z,96095.66
2018-07-27T13:43:26.378Z,96089.28
2018-07-27T13:45:53.601Z,96093.72
2018-07-27T13:48:20.874Z,96082.16
2018-07-27T13:50:48.056Z,96084.73
2018-07-27T13:53:15.274Z,96084.94
2018-07-27T13:55:43.199Z,96085.31
2018-07-27T13:58:10.402Z,96090.25
2018-07-27T14:00:37.754Z,96087.95
2018-07-27T14:03:04.983Z,96088.84
2018-07-27T14:05:32.315Z,96083.63
2018-07-27T14:07:59.532Z,96076.42
2018-07-27T14:10:26.748Z,96080.33
2018-07-27T14:12:54.047Z,96082.41
2018-07-27T14:15:21.264Z,96081.67
2018-07-27T14:17:48.575Z,96070.60
2018-07-27T14:20:15.855Z,96063.30
2018-07-27T14:22:43.123Z,96067.59
2018-07-27T14:25:10.347Z,96064.50
2018-07-27T14:27:38.809Z,96059.73
2018-07-27T14:30:06.613Z,96067.89
2018-07-27T14:32:33.831Z,96066.31
2018-07-27T14:35:01.063Z,96059.23
2018-07-27T14:37:28.323Z,96054.50
2018-07-27T14:39:55.614Z,96059.64
2018-07-27T14:42:26.679Z,96052.78
2018-07-27T14:44:54.114Z,96051.18
2018-07-27T14:47:21.381Z,96051.05
2018-07-27T14:49:48.794Z,96045.66
2018-07-27T14:52:16.087Z,96038.14
2018-07-27T14:54:43.291Z,96039.80
2018-07-27T14:57:10.619Z,96043.47
2018-07-27T14:59:37.901Z,96043.56
2018-07-27T15:02:05.958Z,96042.78
2018-07-27T15:04:33.258Z,96037.65
2018-07-27T15:07:00.591Z,96038.02
2018-07-27T15:09:27.974Z,96029.42
2018-07-27T15:11:55.421Z,96033.97
2018-07-27T15:14:22.702Z,96033.23
2018-07-27T15:16:49.910Z,96026.76
2018-07-27T15:19:17.329Z,96018.34
2018-07-27T15:21:44.570Z,96019.12
2018-07-27T15:24:11.799Z,96027.70
2018-07-27T15:26:39.123Z,96023.88
2018-07-27T15:29:06.450Z,96023.59
2018-07-27T15:31:33.732Z,96025.12
2018-07-27T15:34:00.956Z,96018.80
2018-07-27T15:36:28.293Z,96024.77
2018-07-27T15:38:57.203Z,96022.35
2018-07-27T15:41:24.399Z,96022.41
2018-07-27T15:43:51.695Z,96018.54
2018-07-27T15:46:18.919Z,96016.91
2018-07-27T15:48:46.193Z,96011.75
2018-07-27T15:51:13.412Z,96016.48
2018-07-27T15:53:40.669Z,96016.11
2018-07-27T15:56:07.999Z,96012.27
2018-07-27T15:58:35.247Z,96012.86
2018-07-27T16:01:02.503Z,96008.78
2018-07-27T16:03:29.779Z,96012.28
2018-07-27T16:05:57.059Z,96005.85
2018-07-27T16:08:24.916Z,96011.14
2018-07-27T16:10:52.193Z,96007.77
2018-07-27T16:13:19.450Z,96001.05
2018-07-27T16:15:46.868Z,96006.13
2018-07-27T16:18:14.200Z,96000.83
2018-07-27T16:20:41.427Z,96000.23
2018-07-27T16:23:08.676Z,95995.50
2018-07-27T16:25:42.285Z,95996.72
2018-07-27T16:28:11.031Z,95989.93
2018-07-27T16:30:38.311Z,95991.28
2018-07-27T16:33:05.513Z,95990.77
2018-07-27T16:35:32.779Z,95988.76
2018-07-27T16:38:00.047Z,95991.19
2018-07-27T16:40:27.337Z,95986.05
2018-07-27T16:42:54.595Z,95988.66
2018-07-27T16:45:21.984Z,95986.16
2018-07-27T16:47:49.156Z,95990.75
2018-07-27T16:50:16.378Z,95984.19
2018-07-27T16:52:43.560Z,95991.43
2018-07-27T16:55:10.765Z,95985.14
2018-07-27T16:57:38.066Z,95984.20
2018-07-27T17:00:05.366Z,95986.51
2018-07-27T17:02:32.647Z,95981.25
2018-07-27T17:04:59.872Z,95984.74
2018-07-27T17:07:27.140Z,95984.31
2018-07-27T17:09:54.381Z,95982.97
2018-07-27T17:12:21.705Z,95985.24
2018-07-27T17:14:51.563Z,95982.95
2018-07-27T17:17:18.968Z,95985.20
2018-07-27T17:19:46.150Z,95975.77
2018-07-27T17:22:13.446Z,95977.04
2018-07-27T17:24:40.827Z,95979.45
2018-07-27T17:27:08.137Z,95975.36
2018-07-27T17:29:35.488Z,95977.73
2018-07-27T17:32:02.696Z,95975.83
2018-07-27T17:34:29.919Z,95971.51
2018-07-27T17:36:57.176Z,95970.66
2018-07-27T17:39:24.415Z,95969.19
2018-07-27T17:41:51.653Z,95973.31
2018-07-27T17:44:18.861Z,95970.02
2018-07-27T17:46:46.107Z,95967.46
2018-07-27T17:49:13.299Z,95970.09
2018-07-27T17:51:40.531Z,95975.62
2018-07-27T17:54:08.449Z,95975.68
2018-07-27T17:56:49.816Z,95972.81
2018-07-27T17:59:18.081Z,95971.81
2018-07-27T18:01:47.439Z,95979.47
2018-07-27T18:04:14.631Z,95976.19
2018-07-27T18:06:41.841Z,95980.50
2018-07-27T18:09:10.695Z,95972.62
2018-07-27T18:11:38.454Z,95976.86
2018-07-27T18:14:05.900Z,95968.89
2018-07-27T18:16:33.186Z,95981.98
2018-07-27T18:19:00.521Z,95979.33
2018-07-27T18:21:27.712Z,95981.28
2018-07-27T18:23:54.893Z,95978.95
2018-07-27T18:26:22.101Z,95981.86
2018-07-27T18:28:49.346Z,95982.50
2018-07-27T18:31:16.536Z,95974.98
2018-07-27T18:33:44.414Z,95983.44
2018-07-27T18:36:11.774Z,95986.16
2018-07-27T18:38:39.115Z,95983.52
2018-07-27T18:41:06.350Z,95983.26
2018-07-27T18:43:33.555Z,95989.52
2018-07-27T18:46:00.793Z,95988.02
2018-07-27T18:48:28.132Z,95980.41
2018-07-27T18:50:55.378Z,95983.57
2018-07-27T18:53:22.653Z,95990.03
2018-07-27T18:55:50.019Z,95983.94
2018-07-27T18:58:17.266Z,95990.89
2018-07-27T19:00:44.458Z,95985.63
2018-07-27T19:03:11.766Z,95987.25
2018-07-27T19:05:38.985Z,95985.61
2018-07-27T19:08:06.244Z,95983.19
2018-07-27T19:10:33.523Z,95981.02
2018-07-27T19:13:00.751Z,95988.70
2018-07-27T19:15:28.021Z,95985.03
2018-07-27T19:17:55.293Z,95990.37
2018-07-27T19:20:22.757Z,95987.69
2018-07-27T19:22:49.938Z,95989.16
2018-07-27T19:25:17.259Z,95973.19
2018-07-27T19:27:44.485Z,96001.66
2018-07-27T19:30:12.318Z,96005.72
2018-07-27T19:32:39.622Z,96008.37
2018-07-27T19:35:06.794Z,96001.53
2018-07-27T19:37:34.113Z,96013.88
2018-07-27T19:40:01.391Z,96009.03
2018-07-27T19:42:28.870Z,96010.52
2018-07-27T19:44:56.146Z,96010.55
2018-07-27T19:47:23.500Z,96013.47
2018-07-27T19:49:50.917Z,96015.46
2018-07-27T19:52:18.122Z,96019.30
2018-07-27T19:54:45.386Z,96020.45
2018-07-27T19:57:12.636Z,96021.80
2018-07-27T19:59:40.270Z,96023.28
2018-07-27T20:02:07.535Z,96023.09
2018-07-27T20:04:34.842Z,96019.75
2018-07-27T20:07:02.099Z,96024.38
2018-07-27T20:09:29.342Z,96022.35
2018-07-27T20:11:56.685Z,96030.33
2018-07-27T20:14:23.983Z,96028.94
2018-07-27T20:16:51.247Z,96024.64
2018-07-27T20:19:18.469Z,96020.67
2018-07-27T20:21:45.923Z,96022.78
2018-07-27T20:24:13.214Z,96016.71
2018-07-27T20:26:40.419Z,96019.34
2018-07-27T20:29:07.715Z,96017.55
2018-07-27T20:31:34.930Z,96025.69
2018-07-27T20:34:02.246Z,96021.05
2018-07-27T20:36:29.503Z,96020.85
2018-07-27T20:38:56.813Z,96016.63
2018-07-27T20:41:24.068Z,96024.23
2018-07-27T20:43:51.469Z,96017.77
2018-07-27T20:46:18.783Z,96011.19
2018-07-27T20:48:46.013Z,96012.83
2018-07-27T20:51:13.311Z,96008.00
2018-07-27T20:53:40.602Z,96012.94
2018-07-27T20:56:07.919Z,96014.69
2018-07-27T20:58:35.111Z,96016.72
2018-07-27T21:01:02.402Z,96028.34
2018-07-27T21:03:29.645Z,96026.06
2018-07-27T21:05:56.889Z,96029.46
2018-07-27T21:08:24.120Z,96028.10
2018-07-27T21:10:51.320Z,96024.30
2018-07-27T21:13:18.558Z,96019.63
2018-07-27T21:15:45.844Z,96025.05
2018-07-27T21:18:13.094Z,96018.19
2018-07-27T21:20:40.374Z,96019.79
2018-07-27T21:23:07.961Z,96012.02
2018-07-27T21:25:35.137Z,96019.17
2018-07-27T21:28:02.375Z,96018.03
2018-07-27T21:30:29.652Z,96023.78
2018-07-27T21:32:56.855Z,96019.44
2018-07-27T21:35:24.111Z,96020.89
2018-07-27T21:37:51.415Z,96015.78
2018-07-27T21:40:18.660Z,96024.88
2018-07-27T21:42:45.941Z,96016.16
2018-07-27T21:45:13.253Z,95961.08
2018-07-27T21:47:40.476Z,96013.08
2018-07-27T21:50:08.143Z,96011.09
2018-07-27T21:52:35.462Z,96007.81
2018-07-27T21:55:02.845Z,95999.70
2018-07-27T21:57:30.139Z,95999.07
2018-07-27T21:59:57.394Z,95995.45
2018-07-27T22:02:24.721Z,95990.58
2018-07-27T22:04:52.075Z,95990.38
2018-07-27T22:07:19.411Z,95990.38
2018-07-27T22:09:46.655Z,95990.14
2018-07-27T22:12:13.982Z,95988.19
2018-07-27T22:14:41.180Z,95988.52
2018-07-27T22:17:08.423Z,95986.33
2018-07-27T22:19:35.706Z,95990.25
2018-07-27T22:22:02.970Z,95989.99
2018-07-27T22:24:30.153Z,95987.76
2018-07-27T22:26:57.464Z,95980.80
2018-07-27T22:29:24.752Z,95978.66
2018-07-27T22:31:52.102Z,95979.60
2018-07-27T22:34:19.363Z,95983.16
2018-07-27T22:36:47.152Z,95977.78
2018-07-27T22:39:14.888Z,95977.72
2018-07-27T22:41:42.233Z,95975.30
2018-07-27T22:44:09.532Z,95972.84
2018-07-27T22:46:36.879Z,95975.20
2018-07-27T22:49:04.247Z,95978.89
2018-07-27T22:51:31.495Z,95983.75
2018-07-27T22:53:58.782Z,95985.67
2018-07-27T22:56:25.983Z,95980.41
2018-07-27T22:58:53.185Z,95981.25
2018-07-27T23:01:20.416Z,95988.92
2018-07-27T23:03:47.731Z,95990.81
2018-07-27T23:06:14.948Z,95989.05
2018-07-27T23:08:42.256Z,95981.34
2018-07-27T23:11:09.491Z,95974.52
2018-07-27T23:13:36.691Z,95974.72
2018-07-27T23:16:04.171Z,95974.69
2018-07-27T23:18:31.444Z,95973.62
2018-07-27T23:20:58.690Z,95970.00
2018-07-27T23:23:25.912Z,95965.49
2018-07-27T23:25:53.145Z,95948.97
2018-07-27T23:28:20.416Z,95960.17
2018-07-27T23:30:47.653Z,95962.21
2018-07-27T23:33:14.870Z,95957.88
2018-07-27T23:35:42.061Z,95961.64
2018-07-27T23:38:09.344Z,95961.24
2018-07-27T23:40:36.616Z,95953.66
2018-07-27T23:43:03.887Z,95951.89
2018-07-27T23:45:31.143Z,95947.64
2018-07-27T23:47:58.389Z,95947.20
2018-07-27T23:50:25.656Z,95943.78
2018-07-27T23:52:54.217Z,95947.45
2018-07-27T23:55:21.482Z,95946.13
2018-07-27T23:57:48.664Z,95947.20
